Terminal Aerodrome Forecast
Issued by NWS Blacksburg, VA

Home | Current Version | Previous Version | Text Only | Print | Product List | Glossary On
Versions: 1 2 3 4 5 6 7 8 9 10 11 12 13 14 15 16 17 18 19 20 21 22 23 24 25 26 27 28 29 30 31 32 33 34 35
000
FTUS41 KRNK 271140
TAFLYH
TAF
KLYH 271140Z 2712/2812 20003KT P6SM SCT250
     FM271400 20008KT P6SM BKN250
     FM271800 20010G18KT P6SM SCT045 SCT250
     FM272200 20012G20KT P6SM -SHRA BKN050
     FM280100 22008KT P6SM SCT060 BKN150
     FM280600 VRB03KT 3SM BR SCT250=

USA.gov is the U.S. government's official web portal to all federal, state and local government web resources and services.